createdAt,value
2017-09-28T00:01:45.668Z,101899.11
2017-09-28T00:03:48.145Z,101886.95
2017-09-28T00:05:50.572Z,101889.34
2017-09-28T00:07:53.004Z,101883.31
2017-09-28T00:09:55.621Z,101889.92
2017-09-28T00:11:58.056Z,101882.16
2017-09-28T00:14:00.565Z,101890.77
2017-09-28T00:16:03.030Z,101883.16
2017-09-28T00:18:05.473Z,101881.30
2017-09-28T00:20:07.906Z,101871.41
2017-09-28T00:22:10.369Z,101880.38
2017-09-28T00:24:12.808Z,101884.24
2017-09-28T00:26:15.249Z,101879.88
2017-09-28T00:28:17.706Z,101889.66
2017-09-28T00:30:20.174Z,101895.67
2017-09-28T00:32:22.697Z,101886.71
2017-09-28T00:34:25.164Z,101880.87
2017-09-28T00:36:27.605Z,101882.39
2017-09-28T00:38:30.048Z,101880.87
2017-09-28T00:40:32.504Z,101883.66
2017-09-28T00:42:34.953Z,101884.16
2017-09-28T00:44:37.405Z,101890.42
2017-09-28T00:46:39.881Z,101884.52
2017-09-28T00:48:42.316Z,101886.55
2017-09-28T00:50:44.818Z,101886.63
2017-09-28T00:52:47.294Z,101882.66
2017-09-28T00:54:49.768Z,101885.44
2017-09-28T00:56:52.236Z,101883.00
2017-09-28T00:58:54.713Z,101883.42
2017-09-28T01:00:57.168Z,101881.65
2017-09-28T01:02:59.631Z,101875.97
2017-09-28T01:05:02.101Z,101874.47
2017-09-28T01:07:04.540Z,101865.84
2017-09-28T01:09:07.043Z,101878.52
2017-09-28T01:11:09.708Z,101871.48
2017-09-28T01:13:12.151Z,101880.03
2017-09-28T01:15:14.591Z,101880.45
2017-09-28T01:17:17.066Z,101880.72
2017-09-28T01:19:19.519Z,101880.03
2017-09-28T01:21:21.957Z,101877.75
2017-09-28T01:23:24.450Z,101859.32
2017-09-28T01:25:26.898Z,101861.60
2017-09-28T01:27:29.345Z,101861.09
2017-09-28T01:29:31.811Z,101861.95
2017-09-28T01:31:34.248Z,101859.75
2017-09-28T01:33:36.680Z,101860.25
2017-09-28T01:35:39.149Z,101853.60
2017-09-28T01:37:41.592Z,101852.25
2017-09-28T01:39:44.104Z,101853.17
2017-09-28T01:41:46.572Z,101861.21
2017-09-28T01:43:49.020Z,101848.70
2017-09-28T01:45:51.464Z,101849.97
2017-09-28T01:47:53.922Z,101849.97
2017-09-28T01:49:56.424Z,101847.42
2017-09-28T01:51:58.856Z,101847.77
2017-09-28T01:54:01.322Z,101847.42
2017-09-28T01:56:03.760Z,101845.99
2017-09-28T01:58:06.202Z,101842.44
2017-09-28T02:00:08.668Z,101839.66
2017-09-28T02:02:11.995Z,101842.59
2017-09-28T02:04:14.449Z,101836.69
2017-09-28T02:06:16.938Z,101831.62
2017-09-28T02:08:19.384Z,101831.70
2017-09-28T02:10:21.820Z,101835.34
2017-09-28T02:12:24.343Z,101830.20
2017-09-28T02:14:26.792Z,101832.55
2017-09-28T02:16:29.252Z,101838.46
2017-09-28T02:18:31.757Z,101843.45
2017-09-28T02:20:34.196Z,101849.36
2017-09-28T02:22:36.699Z,101849.78
2017-09-28T02:24:39.169Z,101844.38
2017-09-28T02:26:41.621Z,101839.89
2017-09-28T02:28:44.053Z,101843.02
2017-09-28T02:30:46.568Z,101840.08
2017-09-28T02:32:49.000Z,101846.42
2017-09-28T02:34:51.447Z,101852.06
2017-09-28T02:36:53.912Z,101851.67
2017-09-28T02:38:56.353Z,101852.06
2017-09-28T02:40:58.798Z,101850.71
2017-09-28T02:43:01.282Z,101850.31
2017-09-28T02:45:03.724Z,101851.75
2017-09-28T02:47:06.185Z,101847.61
2017-09-28T02:49:08.644Z,101849.28
2017-09-28T02:51:11.181Z,101838.30
2017-09-28T02:53:13.623Z,101842.12
2017-09-28T02:55:16.097Z,101835.18
2017-09-28T02:57:18.541Z,101840.24
2017-09-28T02:59:20.973Z,101841.70
2017-09-28T03:01:23.440Z,101839.08
2017-09-28T03:03:25.886Z,101838.39
2017-09-28T03:05:28.332Z,101839.92
2017-09-28T03:07:30.792Z,101835.52
2017-09-28T03:09:33.225Z,101838.66
2017-09-28T03:11:35.680Z,101836.80
2017-09-28T03:13:38.333Z,101848.54
2017-09-28T03:15:40.767Z,101840.85
2017-09-28T03:17:43.204Z,101842.94
2017-09-28T03:19:45.668Z,101848.54
2017-09-28T03:21:48.188Z,101857.50
2017-09-28T03:23:50.632Z,101845.65
2017-09-28T03:25:53.175Z,101840.66
2017-09-28T03:27:55.628Z,101844.30
2017-09-28T03:29:58.116Z,101846.69
2017-09-28T03:32:00.589Z,101844.72
2017-09-28T03:34:03.035Z,101841.09
2017-09-28T03:36:05.582Z,101844.64
2017-09-28T03:38:08.051Z,101836.72
2017-09-28T03:40:10.560Z,101836.72
2017-09-28T03:42:12.995Z,101840.78
2017-09-28T03:44:15.501Z,101833.25
2017-09-28T03:46:17.936Z,101842.02
2017-09-28T03:48:20.384Z,101845.22
2017-09-28T03:50:22.844Z,101846.69
2017-09-28T03:52:25.383Z,101848.97
2017-09-28T03:54:27.835Z,101847.19
2017-09-28T03:56:30.330Z,101848.97
2017-09-28T03:58:32.768Z,101846.77
2017-09-28T04:00:35.205Z,101853.52
2017-09-28T04:02:37.836Z,101853.95
2017-09-28T04:04:40.271Z,101837.96
2017-09-28T04:06:42.714Z,101838.89
2017-09-28T04:08:45.307Z,101830.63
2017-09-28T04:10:47.772Z,101833.94
2017-09-28T04:12:50.340Z,101835.45
2017-09-28T04:14:53.270Z,101839.92
2017-09-28T04:16:55.697Z,101841.86
2017-09-28T04:18:58.132Z,101846.10
2017-09-28T04:21:00.695Z,101845.75
2017-09-28T04:23:03.161Z,101842.05
2017-09-28T04:25:05.638Z,101844.22
2017-09-28T04:27:08.206Z,101844.33
2017-09-28T04:29:10.764Z,101842.63
2017-09-28T04:31:13.197Z,101838.92
2017-09-28T04:33:15.727Z,101838.39
2017-09-28T04:35:18.180Z,101841.70
2017-09-28T04:37:20.615Z,101836.64
2017-09-28T04:39:23.077Z,101831.05
2017-09-28T04:41:25.580Z,101831.73
2017-09-28T04:43:28.020Z,101828.69
2017-09-28T04:45:30.532Z,101829.19
2017-09-28T04:47:32.961Z,101829.61
2017-09-28T04:49:35.395Z,101834.09
2017-09-28T04:51:37.901Z,101833.59
2017-09-28T04:53:40.407Z,101831.05
2017-09-28T04:55:42.855Z,101829.19
2017-09-28T04:57:46.168Z,101836.87
2017-09-28T04:59:48.607Z,101830.54
2017-09-28T05:01:51.100Z,101834.59
2017-09-28T05:03:53.553Z,101838.92
2017-09-28T05:05:56.937Z,101831.81
2017-09-28T05:07:59.440Z,101831.31
2017-09-28T05:10:01.898Z,101827.76
2017-09-28T05:12:04.343Z,101830.39
2017-09-28T05:14:06.854Z,101834.02
2017-09-28T05:16:09.609Z,101837.73
2017-09-28T05:18:12.099Z,101837.22
2017-09-28T05:20:14.576Z,101830.47
2017-09-28T05:22:17.028Z,101831.31
2017-09-28T05:24:19.468Z,101828.11
2017-09-28T05:26:21.977Z,101820.31
2017-09-28T05:28:24.513Z,101820.16
2017-09-28T05:30:26.952Z,101824.13
2017-09-28T05:32:29.385Z,101818.72
2017-09-28T05:34:31.869Z,101822.70
2017-09-28T05:36:34.316Z,101825.91
2017-09-28T05:38:36.749Z,101827.26
2017-09-28T05:40:39.222Z,101827.26
2017-09-28T05:42:41.657Z,101824.98
2017-09-28T05:44:44.129Z,101829.88
2017-09-28T05:46:46.591Z,101827.57
2017-09-28T05:48:49.029Z,101832.90
2017-09-28T05:50:51.490Z,101841.02
2017-09-28T05:52:53.954Z,101839.16
2017-09-28T05:54:56.508Z,101841.78
2017-09-28T05:56:58.941Z,101845.99
2017-09-28T05:59:01.417Z,101850.55
2017-09-28T06:01:03.873Z,101855.45
2017-09-28T06:03:06.333Z,101855.45
2017-09-28T06:05:08.810Z,101855.80
2017-09-28T06:07:11.248Z,101862.72
2017-09-28T06:09:13.684Z,101853.52
2017-09-28T06:11:16.136Z,101864.41
2017-09-28T06:13:18.597Z,101865.84
2017-09-28T06:15:21.030Z,101874.06
2017-09-28T06:17:23.636Z,101878.20
2017-09-28T06:19:26.084Z,101870.67
2017-09-28T06:21:28.528Z,101876.16
2017-09-28T06:23:30.976Z,101871.02
2017-09-28T06:25:33.422Z,101872.88
2017-09-28T06:27:35.877Z,101868.73
2017-09-28T06:29:38.396Z,101871.25
2017-09-28T06:31:41.817Z,101867.04
2017-09-28T06:33:45.217Z,101867.81
2017-09-28T06:35:47.672Z,101861.37
2017-09-28T06:37:50.112Z,101862.14
2017-09-28T06:39:52.568Z,101859.25
2017-09-28T06:41:55.032Z,101859.25
2017-09-28T06:43:57.477Z,101859.32
2017-09-28T06:45:59.916Z,101862.80
2017-09-28T06:48:02.379Z,101865.00
2017-09-28T06:50:04.816Z,101864.81
2017-09-28T06:52:07.300Z,101871.69
2017-09-28T06:54:09.772Z,101873.38
2017-09-28T06:56:12.236Z,101874.54
2017-09-28T06:58:14.692Z,101870.75
2017-09-28T07:00:17.179Z,101874.89
2017-09-28T07:02:19.642Z,101882.84
2017-09-28T07:04:22.078Z,101887.83
2017-09-28T07:06:24.590Z,101899.14
2017-09-28T07:08:27.052Z,101904.70
2017-09-28T07:10:29.547Z,101916.80
2017-09-28T07:12:32.025Z,101899.14
2017-09-28T07:14:34.479Z,101894.66
2017-09-28T07:16:37.007Z,101894.83
2017-09-28T07:18:39.581Z,101901.74
2017-09-28T07:20:42.037Z,101893.55
2017-09-28T07:22:44.488Z,101899.89
2017-09-28T07:24:46.991Z,101896.68
2017-09-28T07:26:49.441Z,101902.09
2017-09-28T07:28:51.879Z,101901.48
2017-09-28T07:30:54.561Z,101900.12
2017-09-28T07:32:57.000Z,101893.95
2017-09-28T07:34:59.438Z,101892.44
2017-09-28T07:37:01.900Z,101892.70
2017-09-28T07:39:04.353Z,101889.55
2017-09-28T07:41:06.784Z,101897.23
2017-09-28T07:43:09.241Z,101898.50
2017-09-28T07:45:11.696Z,101902.29
2017-09-28T07:47:14.144Z,101899.59
2017-09-28T07:49:16.600Z,101900.16
2017-09-28T07:51:19.037Z,101904.49
2017-09-28T07:53:21.499Z,101904.72
2017-09-28T07:55:23.988Z,101907.35
2017-09-28T07:57:27.396Z,101904.06
2017-09-28T07:59:31.064Z,101905.22
2017-09-28T08:01:35.541Z,101903.68
2017-09-28T08:03:37.990Z,101907.08
2017-09-28T08:05:40.441Z,101908.08
2017-09-28T08:07:42.899Z,101898.84
2017-09-28T08:09:45.341Z,101902.24
2017-09-28T08:11:48.787Z,101899.88
2017-09-28T08:13:51.264Z,101897.48
2017-09-28T08:15:53.709Z,101902.66
2017-09-28T08:17:56.168Z,101909.08
2017-09-28T08:19:58.704Z,101915.34
2017-09-28T08:22:01.153Z,101901.55
2017-09-28T08:24:03.618Z,101902.40
2017-09-28T08:26:06.087Z,101897.41
2017-09-28T08:28:08.540Z,101901.30
2017-09-28T08:30:11.965Z,101901.49
2017-09-28T08:32:14.428Z,101901.49
2017-09-28T08:34:16.880Z,101905.76
2017-09-28T08:36:19.329Z,101906.30
2017-09-28T08:38:21.815Z,101913.06
2017-09-28T08:40:24.264Z,101907.73
2017-09-28T08:42:26.708Z,101910.20
2017-09-28T08:44:29.230Z,101907.48
2017-09-28T08:46:33.650Z,101911.70
2017-09-28T08:48:36.096Z,101901.66
2017-09-28T08:50:38.577Z,101909.18
2017-09-28T08:52:41.021Z,101911.35
2017-09-28T08:54:43.464Z,101918.38
2017-09-28T08:56:45.930Z,101913.31
2017-09-28T08:58:48.427Z,101916.84
2017-09-28T09:00:50.886Z,101917.18
2017-09-28T09:02:53.356Z,101914.66
2017-09-28T09:04:55.802Z,101919.66
2017-09-28T09:06:58.259Z,101911.70
2017-09-28T09:09:01.675Z,101904.93
2017-09-28T09:11:06.029Z,101911.04
2017-09-28T09:13:08.484Z,101904.43
2017-09-28T09:15:10.956Z,101908.41
2017-09-28T09:17:13.398Z,101908.05
2017-09-28T09:19:15.843Z,101902.98
2017-09-28T09:21:18.715Z,101901.02
2017-09-28T09:23:21.207Z,101903.30
2017-09-28T09:25:23.655Z,101904.73
2017-09-28T09:27:26.149Z,101898.66
2017-09-28T09:29:28.873Z,101899.92
2017-09-28T09:31:31.340Z,101895.75
2017-09-28T09:33:33.798Z,101897.29
2017-09-28T09:35:36.236Z,101897.09
2017-09-28T09:37:38.682Z,101898.45
2017-09-28T09:39:42.098Z,101897.44
2017-09-28T09:41:44.568Z,101896.94
2017-09-28T09:43:47.012Z,101894.23
2017-09-28T09:45:49.510Z,101892.37
2017-09-28T09:47:51.964Z,101890.91
2017-09-28T09:49:54.612Z,101890.13
2017-09-28T09:51:57.124Z,101888.53
2017-09-28T09:53:59.575Z,101886.83
2017-09-28T09:56:02.061Z,101884.55
2017-09-28T09:58:04.520Z,101887.76
2017-09-28T10:00:07.903Z,101888.69
2017-09-28T10:02:11.299Z,101898.94
2017-09-28T10:04:15.657Z,101893.52
2017-09-28T10:06:18.102Z,101899.85
2017-09-28T10:08:23.710Z,101901.70
2017-09-28T10:10:34.268Z,101902.45
2017-09-28T10:12:39.212Z,101899.59
2017-09-28T10:14:45.057Z,101901.02
2017-09-28T10:16:47.529Z,101903.48
2017-09-28T10:18:49.980Z,101904.65
2017-09-28T10:20:52.438Z,101897.92
2017-09-28T10:22:54.973Z,101897.39
2017-09-28T10:24:57.416Z,101900.71
2017-09-28T10:26:59.867Z,101901.30
2017-09-28T10:29:02.325Z,101903.84
2017-09-28T10:31:04.785Z,101906.70
2017-09-28T10:33:08.133Z,101902.30
2017-09-28T10:35:10.604Z,101904.56
2017-09-28T10:37:13.044Z,101907.70
2017-09-28T10:39:16.440Z,101901.94
2017-09-28T10:41:18.940Z,101906.11
2017-09-28T10:43:21.384Z,101909.13
2017-09-28T10:45:23.847Z,101913.53
2017-09-28T10:47:26.311Z,101911.33
2017-09-28T10:49:28.770Z,101913.42
2017-09-28T10:51:31.208Z,101914.52
2017-09-28T10:53:33.669Z,101913.24
2017-09-28T10:55:36.119Z,101917.80
2017-09-28T10:57:38.569Z,101922.09
2017-09-28T10:59:41.945Z,101931.99
2017-09-28T11:01:44.385Z,101927.02
2017-09-28T11:03:46.823Z,101921.79
2017-09-28T11:05:49.296Z,101925.58
2017-09-28T11:07:56.827Z,101924.58
2017-09-28T11:10:00.369Z,101933.36
2017-09-28T11:12:02.870Z,101932.28
2017-09-28T11:14:05.351Z,101934.98
2017-09-28T11:16:09.727Z,101930.70
2017-09-28T11:18:12.189Z,101935.62
2017-09-28T11:20:14.633Z,101938.48
2017-09-28T11:22:17.076Z,101940.48
2017-09-28T11:24:19.655Z,101926.95
2017-09-28T11:26:22.102Z,101920.23
2017-09-28T11:28:24.550Z,101902.20
2017-09-28T11:30:27.012Z,101909.40
2017-09-28T11:32:29.505Z,101909.98
2017-09-28T11:34:32.037Z,101908.47
2017-09-28T11:36:34.519Z,101909.47
2017-09-28T11:38:36.989Z,101909.47
2017-09-28T11:40:39.434Z,101903.94
2017-09-28T11:42:41.950Z,101900.64
2017-09-28T11:44:44.491Z,101895.38
2017-09-28T11:46:46.938Z,101889.30
2017-09-28T11:48:50.387Z,101882.83
2017-09-28T11:50:52.819Z,101885.66
2017-09-28T11:52:55.287Z,101880.25
2017-09-28T11:54:57.764Z,101877.69
2017-09-28T11:57:01.088Z,101871.43
2017-09-28T11:59:03.544Z,101878.18
2017-09-28T12:01:06.026Z,101872.77
2017-09-28T12:03:12.211Z,101876.83
2017-09-28T12:05:15.565Z,101875.98
2017-09-28T12:07:18.063Z,101872.00
2017-09-28T12:09:20.501Z,101873.95
2017-09-28T12:11:22.949Z,101869.27
2017-09-28T12:13:25.422Z,101874.25
2017-09-28T12:15:27.860Z,101869.77
2017-09-28T12:17:30.296Z,101878.90
2017-09-28T12:19:32.774Z,101873.47
2017-09-28T12:21:35.221Z,101871.20
2017-09-28T12:23:37.673Z,101870.63
2017-09-28T12:25:40.206Z,101874.95
2017-09-28T12:27:42.660Z,101878.80
2017-09-28T12:29:45.104Z,101869.05
2017-09-28T12:31:47.569Z,101877.09
2017-09-28T12:33:51.975Z,101872.45
2017-09-28T12:35:54.416Z,101871.44
2017-09-28T12:37:56.906Z,101875.65
2017-09-28T12:39:59.373Z,101881.66
2017-09-28T12:42:01.808Z,101873.81
2017-09-28T12:44:04.269Z,101871.61
2017-09-28T12:46:06.702Z,101868.98
2017-09-28T12:48:09.167Z,101872.60
2017-09-28T12:50:11.635Z,101872.16
2017-09-28T12:52:14.072Z,101865.55
2017-09-28T12:54:16.531Z,101869.38
2017-09-28T12:56:18.999Z,101870.39
2017-09-28T12:58:21.442Z,101869.30
2017-09-28T13:00:23.885Z,101867.83
2017-09-28T13:02:26.385Z,101864.88
2017-09-28T13:04:28.837Z,101863.77
2017-09-28T13:06:31.285Z,101867.90
2017-09-28T13:08:33.761Z,101869.97
2017-09-28T13:10:36.211Z,101866.25
2017-09-28T13:12:38.673Z,101863.20
2017-09-28T13:14:41.240Z,101865.75
2017-09-28T13:16:43.777Z,101866.09
2017-09-28T13:18:46.287Z,101865.83
2017-09-28T13:20:48.696Z,101862.41
2017-09-28T13:22:51.132Z,101870.05
2017-09-28T13:24:53.592Z,101872.39
2017-09-28T13:26:56.217Z,101866.95
2017-09-28T13:28:58.656Z,101867.69
2017-09-28T13:31:01.097Z,101868.81
2017-09-28T13:33:03.570Z,101872.73
2017-09-28T13:35:06.006Z,101864.47
2017-09-28T13:37:08.475Z,101867.25
2017-09-28T13:39:10.966Z,101864.81
2017-09-28T13:41:13.400Z,101867.09
2017-09-28T13:43:15.844Z,101857.90
2017-09-28T13:45:18.319Z,101858.91
2017-09-28T13:47:20.766Z,101863.97
2017-09-28T13:49:23.200Z,101857.28
2017-09-28T13:51:25.691Z,101856.91
2017-09-28T13:53:28.132Z,101859.63
2017-09-28T13:55:30.572Z,101861.24
2017-09-28T13:57:33.033Z,101846.41
2017-09-28T13:59:35.480Z,101847.92
2017-09-28T14:01:38.908Z,101849.91
2017-09-28T14:03:41.442Z,101848.96
2017-09-28T14:05:43.886Z,101848.09
2017-09-28T14:07:46.334Z,101845.80
2017-09-28T14:09:48.817Z,101843.02
2017-09-28T14:11:51.261Z,101849.94
2017-09-28T14:13:54.682Z,101839.08
2017-09-28T14:15:57.154Z,101839.00
2017-09-28T14:17:59.584Z,101840.16
2017-09-28T14:20:02.045Z,101839.10
2017-09-28T14:22:04.561Z,101839.67
2017-09-28T14:24:07.010Z,101832.96
2017-09-28T14:26:10.454Z,101842.09
2017-09-28T14:28:13.099Z,101837.22
2017-09-28T14:30:15.548Z,101843.57
2017-09-28T14:32:17.989Z,101844.14
2017-09-28T14:34:20.456Z,101843.52
2017-09-28T14:36:22.896Z,101841.66
2017-09-28T14:38:25.332Z,101848.88
2017-09-28T14:40:27.804Z,101840.50
2017-09-28T14:42:30.260Z,101847.52
2017-09-28T14:44:32.721Z,101844.28
2017-09-28T14:46:35.189Z,101838.70
2017-09-28T14:48:38.563Z,101838.36
2017-09-28T14:50:41.013Z,101832.67
2017-09-28T14:52:43.487Z,101832.67
2017-09-28T14:54:46.040Z,101836.60
2017-09-28T14:56:48.509Z,101836.94
2017-09-28T14:58:51.080Z,101842.78
2017-09-28T15:00:53.574Z,101837.00
2017-09-28T15:02:56.128Z,101835.16
2017-09-28T15:04:58.604Z,101835.05
2017-09-28T15:07:01.057Z,101838.64
2017-09-28T15:09:03.493Z,101834.39
2017-09-28T15:11:06.000Z,101837.11
2017-09-28T15:13:08.457Z,101841.02
2017-09-28T15:15:10.901Z,101834.98
2017-09-28T15:17:13.408Z,101834.39
2017-09-28T15:19:15.848Z,101832.75
2017-09-28T15:21:18.305Z,101835.12
2017-09-28T15:23:20.781Z,101831.56
2017-09-28T15:25:23.238Z,101838.88
2017-09-28T15:27:25.685Z,101843.19
2017-09-28T15:29:28.328Z,101833.70
2017-09-28T15:31:30.851Z,101829.90
2017-09-28T15:33:33.391Z,101830.55
2017-09-28T15:35:35.868Z,101825.33
2017-09-28T15:37:38.325Z,101824.73
2017-09-28T15:39:40.766Z,101825.22
2017-09-28T15:41:43.232Z,101826.06
2017-09-28T15:43:45.735Z,101829.11
2017-09-28T15:45:48.178Z,101831.46
2017-09-28T15:47:50.654Z,101834.19
2017-09-28T15:49:53.101Z,101829.45
2017-09-28T15:51:55.609Z,101829.20
2017-09-28T15:53:58.187Z,101834.45
2017-09-28T15:56:00.660Z,101828.34
2017-09-28T15:58:03.111Z,101823.98
2017-09-28T16:00:05.590Z,101824.22
2017-09-28T16:02:08.032Z,101827.02
2017-09-28T16:04:10.493Z,101835.48
2017-09-28T16:06:12.965Z,101835.84
2017-09-28T16:08:15.404Z,101835.25
2017-09-28T16:10:17.952Z,101833.98
2017-09-28T16:12:20.423Z,101839.06
2017-09-28T16:14:22.921Z,101838.55
2017-09-28T16:16:25.429Z,101835.00
2017-09-28T16:18:28.033Z,101839.78
2017-09-28T16:20:30.402Z,101840.20
2017-09-28T16:22:32.848Z,101832.52
2017-09-28T16:24:35.323Z,101836.22
2017-09-28T16:26:37.761Z,101835.56
2017-09-28T16:28:40.201Z,101837.94
2017-09-28T16:30:42.717Z,101838.88
2017-09-28T16:32:45.152Z,101835.30
2017-09-28T16:34:47.633Z,101838.31
2017-09-28T16:36:50.088Z,101840.88
2017-09-28T16:38:52.529Z,101837.73
2017-09-28T16:40:54.980Z,101830.19
2017-09-28T16:42:57.530Z,101831.73
2017-09-28T16:44:59.974Z,101837.89
2017-09-28T16:47:02.417Z,101834.80
2017-09-28T16:49:04.917Z,101842.98
2017-09-28T16:51:07.369Z,101843.92
2017-09-28T16:53:09.822Z,101844.66
2017-09-28T16:55:12.286Z,101846.01
2017-09-28T16:57:14.752Z,101851.13
2017-09-28T16:59:17.249Z,101852.48
2017-09-28T17:01:19.702Z,101849.77
2017-09-28T17:03:22.178Z,101854.62
2017-09-28T17:05:24.622Z,101853.69
2017-09-28T17:07:27.081Z,101844.80
2017-09-28T17:09:29.527Z,101853.00
2017-09-28T17:11:31.987Z,101856.75
2017-09-28T17:13:34.452Z,101859.81
2017-09-28T17:15:36.904Z,101854.14
2017-09-28T17:17:39.395Z,101857.69
2017-09-28T17:19:41.930Z,101857.92
2017-09-28T17:21:44.365Z,101855.75
2017-09-28T17:23:46.815Z,101855.40
2017-09-28T17:25:49.294Z,101853.86
2017-09-28T17:27:51.729Z,101857.86
2017-09-28T17:29:54.194Z,101858.78
2017-09-28T17:31:56.812Z,101859.32
2017-09-28T17:33:59.265Z,101863.46
2017-09-28T17:36:01.696Z,101858.47
2017-09-28T17:38:04.152Z,101860.25
2017-09-28T17:40:06.694Z,101863.55
2017-09-28T17:42:09.137Z,101864.73
2017-09-28T17:44:11.612Z,101866.67
2017-09-28T17:46:14.115Z,101861.09
2017-09-28T17:48:16.627Z,101873.21
2017-09-28T17:50:19.192Z,101866.69
2017-09-28T17:52:21.624Z,101868.23
2017-09-28T17:54:24.066Z,101877.77
2017-09-28T17:56:26.532Z,101878.44
2017-09-28T17:58:28.971Z,101881.26
2017-09-28T18:00:31.404Z,101887.48
2017-09-28T18:02:33.917Z,101893.52
2017-09-28T18:04:36.351Z,101891.24
2017-09-28T18:06:38.853Z,101896.88
2017-09-28T18:08:41.333Z,101898.31
2017-09-28T18:10:43.773Z,101900.09
2017-09-28T18:12:46.497Z,101909.92
2017-09-28T18:14:49.876Z,101912.39
2017-09-28T18:16:52.385Z,101909.76
2017-09-28T18:18:54.835Z,101910.92
2017-09-28T18:20:57.324Z,101910.42
2017-09-28T18:22:59.777Z,101914.98
2017-09-28T18:25:02.209Z,101917.10
2017-09-28T18:27:04.701Z,101916.25
2017-09-28T18:29:07.138Z,101920.31
2017-09-28T18:31:09.612Z,101932.42
2017-09-28T18:33:12.281Z,101929.91
2017-09-28T18:35:14.794Z,101935.32
2017-09-28T18:37:17.230Z,101936.25
2017-09-28T18:39:19.744Z,101932.92
2017-09-28T18:41:22.205Z,101937.83
2017-09-28T18:43:25.015Z,101928.78
2017-09-28T18:45:27.539Z,101933.55
2017-09-28T18:47:30.058Z,101932.84
2017-09-28T18:49:32.933Z,101927.59
2017-09-28T18:51:36.262Z,101927.78
2017-09-28T18:53:38.765Z,101934.05
2017-09-28T18:55:41.196Z,101939.19
2017-09-28T18:57:43.670Z,101932.69
2017-09-28T18:59:46.241Z,101932.42
2017-09-28T19:01:48.678Z,101936.67
2017-09-28T19:03:51.153Z,101938.95
2017-09-28T19:05:53.585Z,101938.19
2017-09-28T19:07:56.044Z,101937.26
2017-09-28T19:09:58.504Z,101937.30
2017-09-28T19:12:00.939Z,101940.55
2017-09-28T19:14:03.383Z,101937.41
2017-09-28T19:16:05.868Z,101936.99
2017-09-28T19:18:08.378Z,101935.72
2017-09-28T19:20:10.840Z,101934.36
2017-09-28T19:22:13.301Z,101936.14
2017-09-28T19:24:15.742Z,101940.47
2017-09-28T19:26:18.187Z,101939.63
2017-09-28T19:28:20.672Z,101937.84
2017-09-28T19:30:23.109Z,101945.62
2017-09-28T19:32:25.577Z,101936.14
2017-09-28T19:34:28.240Z,101936.73
2017-09-28T19:36:30.736Z,101935.37
2017-09-28T19:38:33.276Z,101936.34
2017-09-28T19:40:35.740Z,101934.87
2017-09-28T19:42:38.178Z,101937.58
2017-09-28T19:44:40.637Z,101938.77
2017-09-28T19:46:43.153Z,101938.27
2017-09-28T19:48:45.592Z,101935.56
2017-09-28T19:50:48.029Z,101935.64
2017-09-28T19:52:50.497Z,101934.30
2017-09-28T19:54:52.940Z,101932.94
2017-09-28T19:56:55.380Z,101932.28
2017-09-28T19:58:57.878Z,101936.77
2017-09-28T20:01:00.359Z,101935.14
2017-09-28T20:03:02.803Z,101939.78
2017-09-28T20:05:05.298Z,101945.30
2017-09-28T20:07:07.729Z,101943.95
2017-09-28T20:09:10.169Z,101943.34
2017-09-28T20:11:12.702Z,101946.89
2017-09-28T20:13:15.140Z,101948.25
2017-09-28T20:15:17.643Z,101943.95
2017-09-28T20:17:20.176Z,101948.44
2017-09-28T20:19:22.620Z,101938.43
2017-09-28T20:21:25.071Z,101945.89
2017-09-28T20:23:27.553Z,101939.47
2017-09-28T20:25:29.997Z,101937.69
2017-09-28T20:27:32.437Z,101937.96
2017-09-28T20:29:34.901Z,101940.55
2017-09-28T20:31:37.337Z,101938.27
2017-09-28T20:33:39.768Z,101931.00
2017-09-28T20:35:42.349Z,101933.36
2017-09-28T20:37:44.798Z,101930.50
2017-09-28T20:39:47.273Z,101933.20
2017-09-28T20:41:49.742Z,101941.33
2017-09-28T20:43:52.192Z,101943.53
2017-09-28T20:45:54.645Z,101949.52
2017-09-28T20:47:57.113Z,101947.94
2017-09-28T20:49:59.561Z,101944.03
2017-09-28T20:52:02.064Z,101949.59
2017-09-28T20:54:04.541Z,101949.71
2017-09-28T20:56:06.976Z,101945.73
2017-09-28T20:58:09.457Z,101956.36
2017-09-28T21:00:11.935Z,101947.16
2017-09-28T21:02:14.457Z,101948.94
2017-09-28T21:04:16.895Z,101953.77
2017-09-28T21:06:19.396Z,101956.48
2017-09-28T21:08:21.866Z,101948.44
2017-09-28T21:10:24.304Z,101955.94
2017-09-28T21:12:26.769Z,101958.41
2017-09-28T21:14:29.213Z,101954.00
2017-09-28T21:16:31.750Z,101952.42
2017-09-28T21:18:34.330Z,101957.48
2017-09-28T21:20:36.780Z,101959.34
2017-09-28T21:22:39.230Z,101956.63
2017-09-28T21:24:41.720Z,101955.47
2017-09-28T21:26:44.166Z,101958.17
2017-09-28T21:28:46.701Z,101963.05
2017-09-28T21:30:49.247Z,101966.29
2017-09-28T21:32:51.713Z,101962.63
2017-09-28T21:34:54.147Z,101957.64
2017-09-28T21:36:56.749Z,101953.16
2017-09-28T21:38:59.185Z,101953.16
2017-09-28T21:41:01.619Z,101952.58
2017-09-28T21:43:04.175Z,101954.77
2017-09-28T21:45:06.657Z,101956.28
2017-09-28T21:47:09.124Z,101954.62
2017-09-28T21:49:11.590Z,101952.42
2017-09-28T21:51:14.057Z,101952.42
2017-09-28T21:53:16.492Z,101943.88
2017-09-28T21:55:18.972Z,101950.22
2017-09-28T21:57:21.481Z,101951.99
2017-09-28T21:59:23.928Z,101946.23
2017-09-28T22:01:26.520Z,101945.07
2017-09-28T22:03:28.991Z,101948.63
2017-09-28T22:05:31.434Z,101948.94
2017-09-28T22:07:33.910Z,101944.88
2017-09-28T22:09:36.378Z,101944.95
2017-09-28T22:11:38.829Z,101940.52
2017-09-28T22:13:41.302Z,101940.66
2017-09-28T22:15:43.738Z,101942.17
2017-09-28T22:17:46.180Z,101941.67
2017-09-28T22:19:48.734Z,101939.16
2017-09-28T22:21:51.172Z,101937.73
2017-09-28T22:23:53.618Z,101934.17
2017-09-28T22:25:56.088Z,101942.28
2017-09-28T22:27:58.536Z,101938.73
2017-09-28T22:30:01.093Z,101932.05
2017-09-28T22:32:03.689Z,101934.52
2017-09-28T22:34:06.237Z,101932.89
2017-09-28T22:36:08.676Z,101932.82
2017-09-28T22:38:11.281Z,101930.19
2017-09-28T22:40:13.764Z,101929.45
2017-09-28T22:42:16.229Z,101936.72
2017-09-28T22:44:18.796Z,101928.49
2017-09-28T22:46:21.276Z,101930.70
2017-09-28T22:48:23.717Z,101929.69
2017-09-28T22:50:26.196Z,101928.41
2017-09-28T22:52:28.644Z,101936.11
2017-09-28T22:54:31.094Z,101936.11
2017-09-28T22:56:33.569Z,101935.34
2017-09-28T22:58:36.004Z,101933.91
2017-09-28T23:00:38.594Z,101928.84
2017-09-28T23:02:41.125Z,101922.50
2017-09-28T23:04:43.567Z,101923.08
2017-09-28T23:06:46.013Z,101928.49
2017-09-28T23:08:48.496Z,101925.36
2017-09-28T23:10:50.944Z,101923.51
2017-09-28T23:12:53.371Z,101918.87
2017-09-28T23:14:55.840Z,101920.80
2017-09-28T23:16:58.281Z,101916.94
2017-09-28T23:19:00.725Z,101918.60